sensor_id;sensor_type;location;lat;lon;timestamp;P1;durP1;ratioP1;P2;durP2;ratioP2
10246;SDS011;5168;47.854;7.944;2022-09-09T00:01:10;2.63;;;1.30;;
10246;SDS011;5168;47.854;7.944;2022-09-09T00:04:12;4.23;;;1.90;;
10246;SDS011;5168;47.854;7.944;2022-09-09T00:06:49;2.00;;;1.60;;
10246;SDS011;5168;47.854;7.944;2022-09-09T00:15:13;3.77;;;1.27;;
10246;SDS011;5168;47.854;7.944;2022-09-09T00:23:30;6.03;;;1.80;;
10246;SDS011;5168;47.854;7.944;2022-09-09T00:28:39;4.80;;;1.80;;
10246;SDS011;5168;47.854;7.944;2022-09-09T00:31:15;2.97;;;1.60;;
10246;SDS011;5168;47.854;7.944;2022-09-09T00:33:45;2.43;;;1.70;;
10246;SDS011;5168;47.854;7.944;2022-09-09T00:36:14;3.57;;;1.70;;
10246;SDS011;5168;47.854;7.944;2022-09-09T00:38:49;2.67;;;1.50;;
10246;SDS011;5168;47.854;7.944;2022-09-09T00:41:21;2.37;;;1.50;;
10246;SDS011;5168;47.854;7.944;2022-09-09T00:44:06;2.67;;;1.40;;
10246;SDS011;5168;47.854;7.944;2022-09-09T00:46:50;2.07;;;1.50;;
10246;SDS011;5168;47.854;7.944;2022-09-09T00:54:38;3.90;;;1.80;;
10246;SDS011;5168;47.854;7.944;2022-09-09T00:59:58;2.77;;;1.93;;
10246;SDS011;5168;47.854;7.944;2022-09-09T01:07:57;3.33;;;1.63;;
10246;SDS011;5168;47.854;7.944;2022-09-09T01:10:37;1.63;;;1.50;;
10246;SDS011;5168;47.854;7.944;2022-09-09T01:13:08;4.13;;;1.80;;
10246;SDS011;5168;47.854;7.944;2022-09-09T01:15:40;3.33;;;1.70;;
10246;SDS011;5168;47.854;7.944;2022-09-09T01:18:10;3.30;;;1.63;;
10246;SDS011;5168;47.854;7.944;2022-09-09T01:20:43;4.63;;;1.70;;
10246;SDS011;5168;47.854;7.944;2022-09-09T01:23:38;4.23;;;2.13;;
10246;SDS011;5168;47.854;7.944;2022-09-09T01:26:18;2.87;;;1.70;;
10246;SDS011;5168;47.854;7.944;2022-09-09T01:29:12;4.07;;;1.63;;
10246;SDS011;5168;47.854;7.944;2022-09-09T01:31:41;2.13;;;1.70;;
10246;SDS011;5168;47.854;7.944;2022-09-09T01:34:17;1.83;;;1.43;;
10246;SDS011;5168;47.854;7.944;2022-09-09T01:37:02;2.57;;;1.50;;
10246;SDS011;5168;47.854;7.944;2022-09-09T01:39:32;3.23;;;1.63;;
10246;SDS011;5168;47.854;7.944;2022-09-09T01:41:59;2.07;;;1.50;;
10246;SDS011;5168;47.854;7.944;2022-09-09T01:44:26;3.40;;;1.80;;
10246;SDS011;5168;47.854;7.944;2022-09-09T01:46:53;3.70;;;1.60;;
10246;SDS011;5168;47.854;7.944;2022-09-09T01:49:18;4.63;;;2.13;;
10246;SDS011;5168;47.854;7.944;2022-09-09T01:51:45;2.87;;;1.83;;
10246;SDS011;5168;47.854;7.944;2022-09-09T01:54:14;2.10;;;1.90;;
10246;SDS011;5168;47.854;7.944;2022-09-09T02:02:11;2.27;;;1.90;;
10246;SDS011;5168;47.854;7.944;2022-09-09T02:04:41;4.50;;;2.03;;
10246;SDS011;5168;47.854;7.944;2022-09-09T02:10:01;3.43;;;1.90;;
10246;SDS011;5168;47.854;7.944;2022-09-09T02:12:34;2.50;;;2.00;;
10246;SDS011;5168;47.854;7.944;2022-09-09T02:15:05;2.33;;;1.90;;
10246;SDS011;5168;47.854;7.944;2022-09-09T02:17:36;5.43;;;1.70;;
10246;SDS011;5168;47.854;7.944;2022-09-09T02:20:08;3.77;;;2.00;;
10246;SDS011;5168;47.854;7.944;2022-09-09T02:22:39;2.43;;;1.70;;
10246;SDS011;5168;47.854;7.944;2022-09-09T02:25:08;2.73;;;1.90;;
10246;SDS011;5168;47.854;7.944;2022-09-09T02:27:38;3.30;;;1.97;;
10246;SDS011;5168;47.854;7.944;2022-09-09T02:30:08;4.10;;;1.93;;
10246;SDS011;5168;47.854;7.944;2022-09-09T02:32:34;2.43;;;1.80;;
10246;SDS011;5168;47.854;7.944;2022-09-09T02:35:07;3.57;;;2.10;;
10246;SDS011;5168;47.854;7.944;2022-09-09T02:37:36;3.73;;;2.00;;
10246;SDS011;5168;47.854;7.944;2022-09-09T02:40:04;2.23;;;1.83;;
10246;SDS011;5168;47.854;7.944;2022-09-09T02:42:34;3.50;;;2.00;;
10246;SDS011;5168;47.854;7.944;2022-09-09T02:45:04;3.20;;;2.07;;
10246;SDS011;5168;47.854;7.944;2022-09-09T02:47:34;4.73;;;2.30;;
10246;SDS011;5168;47.854;7.944;2022-09-09T02:53:15;3.00;;;2.07;;
10246;SDS011;5168;47.854;7.944;2022-09-09T02:55:37;2.27;;;1.90;;
10246;SDS011;5168;47.854;7.944;2022-09-09T02:58:12;2.60;;;1.90;;
10246;SDS011;5168;47.854;7.944;2022-09-09T03:00:42;3.17;;;2.00;;
10246;SDS011;5168;47.854;7.944;2022-09-09T03:03:11;2.87;;;2.07;;
10246;SDS011;5168;47.854;7.944;2022-09-09T03:05:37;4.43;;;2.20;;
10246;SDS011;5168;47.854;7.944;2022-09-09T03:08:03;7.60;;;2.00;;
10246;SDS011;5168;47.854;7.944;2022-09-09T03:10:30;4.47;;;2.30;;
10246;SDS011;5168;47.854;7.944;2022-09-09T03:12:57;4.97;;;2.17;;
10246;SDS011;5168;47.854;7.944;2022-09-09T03:15:22;2.07;;;1.77;;
10246;SDS011;5168;47.854;7.944;2022-09-09T03:17:48;2.37;;;1.90;;
10246;SDS011;5168;47.854;7.944;2022-09-09T03:20:13;6.53;;;2.27;;
10246;SDS011;5168;47.854;7.944;2022-09-09T03:22:39;3.27;;;2.00;;
10246;SDS011;5168;47.854;7.944;2022-09-09T03:25:06;2.33;;;1.77;;
10246;SDS011;5168;47.854;7.944;2022-09-09T03:27:32;3.90;;;2.03;;
10246;SDS011;5168;47.854;7.944;2022-09-09T03:29:58;3.90;;;1.73;;
10246;SDS011;5168;47.854;7.944;2022-09-09T03:32:24;1.83;;;1.70;;
10246;SDS011;5168;47.854;7.944;2022-09-09T03:34:51;5.00;;;2.00;;
10246;SDS011;5168;47.854;7.944;2022-09-09T03:37:17;3.37;;;2.30;;
10246;SDS011;5168;47.854;7.944;2022-09-09T03:39:43;2.67;;;1.90;;
10246;SDS011;5168;47.854;7.944;2022-09-09T03:42:09;4.87;;;1.80;;
10246;SDS011;5168;47.854;7.944;2022-09-09T03:44:35;5.07;;;1.93;;
10246;SDS011;5168;47.854;7.944;2022-09-09T03:47:01;3.30;;;2.00;;
10246;SDS011;5168;47.854;7.944;2022-09-09T03:49:27;3.03;;;1.87;;
10246;SDS011;5168;47.854;7.944;2022-09-09T03:51:54;2.83;;;1.87;;
10246;SDS011;5168;47.854;7.944;2022-09-09T03:54:24;3.77;;;2.17;;
10246;SDS011;5168;47.854;7.944;2022-09-09T03:56:50;2.63;;;1.90;;
10246;SDS011;5168;47.854;7.944;2022-09-09T03:59:15;3.90;;;2.07;;
10246;SDS011;5168;47.854;7.944;2022-09-09T04:01:41;5.03;;;2.10;;
10246;SDS011;5168;47.854;7.944;2022-09-09T04:04:07;4.67;;;2.40;;
10246;SDS011;5168;47.854;7.944;2022-09-09T04:06:34;4.07;;;2.40;;
10246;SDS011;5168;47.854;7.944;2022-09-09T04:09:00;4.20;;;2.23;;
10246;SDS011;5168;47.854;7.944;2022-09-09T04:11:27;2.17;;;2.00;;
10246;SDS011;5168;47.854;7.944;2022-09-09T04:13:53;3.93;;;2.00;;
10246;SDS011;5168;47.854;7.944;2022-09-09T04:16:19;5.23;;;2.17;;
10246;SDS011;5168;47.854;7.944;2022-09-09T04:18:45;3.43;;;1.80;;
10246;SDS011;5168;47.854;7.944;2022-09-09T04:21:11;5.07;;;2.40;;
10246;SDS011;5168;47.854;7.944;2022-09-09T04:23:37;3.90;;;2.17;;
10246;SDS011;5168;47.854;7.944;2022-09-09T04:26:03;4.20;;;2.13;;
10246;SDS011;5168;47.854;7.944;2022-09-09T04:28:31;6.27;;;1.90;;
10246;SDS011;5168;47.854;7.944;2022-09-09T04:31:03;3.63;;;1.97;;
10246;SDS011;5168;47.854;7.944;2022-09-09T04:33:29;3.00;;;1.80;;
10246;SDS011;5168;47.854;7.944;2022-09-09T04:35:56;2.27;;;1.70;;
10246;SDS011;5168;47.854;7.944;2022-09-09T04:38:22;4.50;;;1.90;;
10246;SDS011;5168;47.854;7.944;2022-09-09T04:40:48;2.50;;;1.63;;
10246;SDS011;5168;47.854;7.944;2022-09-09T04:43:14;3.13;;;1.90;;
10246;SDS011;5168;47.854;7.944;2022-09-09T04:45:41;5.73;;;1.93;;
10246;SDS011;5168;47.854;7.944;2022-09-09T04:48:07;6.67;;;2.10;;
10246;SDS011;5168;47.854;7.944;2022-09-09T04:50:34;2.03;;;1.80;;
10246;SDS011;5168;47.854;7.944;2022-09-09T04:53:01;5.40;;;2.00;;
10246;SDS011;5168;47.854;7.944;2022-09-09T04:55:27;4.10;;;1.87;;
10246;SDS011;5168;47.854;7.944;2022-09-09T04:57:52;2.80;;;1.50;;
10246;SDS011;5168;47.854;7.944;2022-09-09T05:00:18;4.87;;;2.10;;
10246;SDS011;5168;47.854;7.944;2022-09-09T05:02:44;2.60;;;2.10;;
10246;SDS011;5168;47.854;7.944;2022-09-09T05:05:10;3.57;;;1.80;;
10246;SDS011;5168;47.854;7.944;2022-09-09T05:07:37;2.87;;;1.73;;
10246;SDS011;5168;47.854;7.944;2022-09-09T05:10:02;1.70;;;1.60;;
10246;SDS011;5168;47.854;7.944;2022-09-09T05:12:29;6.83;;;2.10;;
10246;SDS011;5168;47.854;7.944;2022-09-09T05:14:56;7.73;;;2.20;;
10246;SDS011;5168;47.854;7.944;2022-09-09T05:17:21;4.80;;;2.10;;
10246;SDS011;5168;47.854;7.944;2022-09-09T05:19:47;4.13;;;1.90;;
10246;SDS011;5168;47.854;7.944;2022-09-09T05:22:17;4.13;;;1.90;;
10246;SDS011;5168;47.854;7.944;2022-09-09T05:24:45;4.40;;;2.27;;
10246;SDS011;5168;47.854;7.944;2022-09-09T05:27:10;3.53;;;2.10;;
10246;SDS011;5168;47.854;7.944;2022-09-09T05:29:37;2.73;;;2.20;;
10246;SDS011;5168;47.854;7.944;2022-09-09T05:32:03;5.70;;;2.20;;
10246;SDS011;5168;47.854;7.944;2022-09-09T05:34:29;3.27;;;1.80;;
10246;SDS011;5168;47.854;7.944;2022-09-09T05:36:54;3.10;;;2.13;;
10246;SDS011;5168;47.854;7.944;2022-09-09T05:39:20;4.73;;;2.10;;
10246;SDS011;5168;47.854;7.944;2022-09-09T05:41:46;2.67;;;2.33;;
10246;SDS011;5168;47.854;7.944;2022-09-09T05:44:11;4.30;;;2.10;;
10246;SDS011;5168;47.854;7.944;2022-09-09T05:46:38;3.70;;;2.27;;
10246;SDS011;5168;47.854;7.944;2022-09-09T05:49:04;4.53;;;2.00;;
10246;SDS011;5168;47.854;7.944;2022-09-09T05:51:30;4.83;;;1.80;;
10246;SDS011;5168;47.854;7.944;2022-09-09T05:53:56;3.07;;;2.30;;
10246;SDS011;5168;47.854;7.944;2022-09-09T05:56:25;4.60;;;2.00;;
10246;SDS011;5168;47.854;7.944;2022-09-09T05:58:52;4.07;;;2.00;;
10246;SDS011;5168;47.854;7.944;2022-09-09T06:01:20;4.07;;;2.10;;
10246;SDS011;5168;47.854;7.944;2022-09-09T06:03:54;3.00;;;2.00;;
10246;SDS011;5168;47.854;7.944;2022-09-09T06:06:23;3.30;;;2.17;;
10246;SDS011;5168;47.854;7.944;2022-09-09T06:08:57;1.97;;;1.77;;
10246;SDS011;5168;47.854;7.944;2022-09-09T06:11:23;1.80;;;1.53;;
10246;SDS011;5168;47.854;7.944;2022-09-09T06:13:51;4.50;;;1.90;;
10246;SDS011;5168;47.854;7.944;2022-09-09T06:16:19;2.23;;;1.70;;
10246;SDS011;5168;47.854;7.944;2022-09-09T06:18:48;5.67;;;1.87;;
10246;SDS011;5168;47.854;7.944;2022-09-09T06:21:18;4.40;;;2.07;;
10246;SDS011;5168;47.854;7.944;2022-09-09T06:23:44;3.73;;;1.90;;
10246;SDS011;5168;47.854;7.944;2022-09-09T06:26:12;4.13;;;2.10;;
10246;SDS011;5168;47.854;7.944;2022-09-09T06:28:38;3.77;;;1.87;;
10246;SDS011;5168;47.854;7.944;2022-09-09T06:31:06;3.57;;;2.00;;
10246;SDS011;5168;47.854;7.944;2022-09-09T06:33:37;6.43;;;1.83;;
10246;SDS011;5168;47.854;7.944;2022-09-09T06:36:07;4.03;;;2.07;;
10246;SDS011;5168;47.854;7.944;2022-09-09T06:38:39;2.13;;;1.93;;
10246;SDS011;5168;47.854;7.944;2022-09-09T06:41:06;3.73;;;2.13;;
10246;SDS011;5168;47.854;7.944;2022-09-09T06:43:32;2.43;;;1.60;;
10246;SDS011;5168;47.854;7.944;2022-09-09T06:46:02;2.67;;;1.60;;
10246;SDS011;5168;47.854;7.944;2022-09-09T06:48:29;2.03;;;1.57;;
10246;SDS011;5168;47.854;7.944;2022-09-09T06:51:04;1.93;;;1.73;;
10246;SDS011;5168;47.854;7.944;2022-09-09T06:53:33;1.93;;;1.73;;
10246;SDS011;5168;47.854;7.944;2022-09-09T06:56:00;2.90;;;1.93;;
10246;SDS011;5168;47.854;7.944;2022-09-09T06:58:27;3.20;;;1.80;;
10246;SDS011;5168;47.854;7.944;2022-09-09T07:01:00;2.07;;;1.77;;
10246;SDS011;5168;47.854;7.944;2022-09-09T07:03:31;2.23;;;1.77;;
10246;SDS011;5168;47.854;7.944;2022-09-09T07:05:57;4.27;;;1.93;;
10246;SDS011;5168;47.854;7.944;2022-09-09T07:08:23;4.60;;;2.37;;
10246;SDS011;5168;47.854;7.944;2022-09-09T07:10:49;3.60;;;2.50;;
10246;SDS011;5168;47.854;7.944;2022-09-09T07:13:18;2.60;;;2.10;;
10246;SDS011;5168;47.854;7.944;2022-09-09T07:15:50;3.70;;;1.93;;
10246;SDS011;5168;47.854;7.944;2022-09-09T07:18:16;2.83;;;2.03;;
10246;SDS011;5168;47.854;7.944;2022-09-09T07:20:41;3.33;;;2.20;;
10246;SDS011;5168;47.854;7.944;2022-09-09T07:23:07;4.90;;;2.43;;
10246;SDS011;5168;47.854;7.944;2022-09-09T07:25:33;6.60;;;2.40;;
10246;SDS011;5168;47.854;7.944;2022-09-09T07:27:58;2.93;;;2.20;;
10246;SDS011;5168;47.854;7.944;2022-09-09T07:30:25;4.77;;;2.60;;
10246;SDS011;5168;47.854;7.944;2022-09-09T07:32:51;2.87;;;2.07;;
10246;SDS011;5168;47.854;7.944;2022-09-09T07:35:17;3.70;;;2.27;;
10246;SDS011;5168;47.854;7.944;2022-09-09T07:37:42;4.73;;;1.90;;
10246;SDS011;5168;47.854;7.944;2022-09-09T07:40:08;8.30;;;2.07;;
10246;SDS011;5168;47.854;7.944;2022-09-09T07:42:35;6.70;;;2.23;;
10246;SDS011;5168;47.854;7.944;2022-09-09T07:45:02;4.33;;;2.40;;
10246;SDS011;5168;47.854;7.944;2022-09-09T07:47:28;7.40;;;2.57;;
10246;SDS011;5168;47.854;7.944;2022-09-09T07:49:54;7.27;;;2.20;;
10246;SDS011;5168;47.854;7.944;2022-09-09T07:52:20;5.17;;;1.90;;
10246;SDS011;5168;47.854;7.944;2022-09-09T07:54:46;4.77;;;2.53;;
10246;SDS011;5168;47.854;7.944;2022-09-09T07:57:12;4.40;;;1.87;;
10246;SDS011;5168;47.854;7.944;2022-09-09T07:59:38;4.17;;;1.70;;
10246;SDS011;5168;47.854;7.944;2022-09-09T08:02:04;3.80;;;1.67;;
10246;SDS011;5168;47.854;7.944;2022-09-09T08:04:30;7.53;;;2.10;;
10246;SDS011;5168;47.854;7.944;2022-09-09T08:06:56;3.00;;;1.97;;
10246;SDS011;5168;47.854;7.944;2022-09-09T08:09:24;3.63;;;1.87;;
10246;SDS011;5168;47.854;7.944;2022-09-09T08:11:52;4.90;;;2.20;;
10246;SDS011;5168;47.854;7.944;2022-09-09T08:14:18;5.47;;;2.20;;
10246;SDS011;5168;47.854;7.944;2022-09-09T08:16:45;3.43;;;1.73;;
10246;SDS011;5168;47.854;7.944;2022-09-09T08:19:12;2.43;;;1.87;;
10246;SDS011;5168;47.854;7.944;2022-09-09T08:21:40;4.50;;;1.73;;
10246;SDS011;5168;47.854;7.944;2022-09-09T08:24:07;4.87;;;1.90;;
10246;SDS011;5168;47.854;7.944;2022-09-09T08:26:36;3.37;;;1.77;;
10246;SDS011;5168;47.854;7.944;2022-09-09T08:29:13;4.63;;;1.70;;
10246;SDS011;5168;47.854;7.944;2022-09-09T08:31:41;2.83;;;1.83;;
10246;SDS011;5168;47.854;7.944;2022-09-09T08:34:08;5.57;;;2.20;;
10246;SDS011;5168;47.854;7.944;2022-09-09T08:36:36;3.27;;;1.97;;
10246;SDS011;5168;47.854;7.944;2022-09-09T08:39:04;4.33;;;1.60;;
10246;SDS011;5168;47.854;7.944;2022-09-09T08:49:51;2.00;;;1.40;;
10246;SDS011;5168;47.854;7.944;2022-09-09T08:58:14;1.77;;;1.33;;
10246;SDS011;5168;47.854;7.944;2022-09-09T09:03:28;4.20;;;1.67;;
10246;SDS011;5168;47.854;7.944;2022-09-09T09:06:22;3.23;;;1.40;;
10246;SDS011;5168;47.854;7.944;2022-09-09T09:11:53;2.43;;;1.30;;
10246;SDS011;5168;47.854;7.944;2022-09-09T09:14:25;4.10;;;1.27;;
10246;SDS011;5168;47.854;7.944;2022-09-09T09:16:56;3.33;;;1.50;;
10246;SDS011;5168;47.854;7.944;2022-09-09T09:19:24;3.67;;;1.53;;
10246;SDS011;5168;47.854;7.944;2022-09-09T09:24:36;2.47;;;1.50;;
10246;SDS011;5168;47.854;7.944;2022-09-09T09:27:11;3.40;;;1.40;;
10246;SDS011;5168;47.854;7.944;2022-09-09T09:29:39;2.97;;;1.60;;
10246;SDS011;5168;47.854;7.944;2022-09-09T09:32:08;2.77;;;1.30;;
10246;SDS011;5168;47.854;7.944;2022-09-09T09:34:38;5.17;;;1.80;;
10246;SDS011;5168;47.854;7.944;2022-09-09T09:37:12;3.33;;;1.53;;
10246;SDS011;5168;47.854;7.944;2022-09-09T09:40:12;4.00;;;1.60;;
10246;SDS011;5168;47.854;7.944;2022-09-09T09:47:45;1.73;;;1.20;;
10246;SDS011;5168;47.854;7.944;2022-09-09T09:50:19;4.80;;;1.70;;
10246;SDS011;5168;47.854;7.944;2022-09-09T09:52:53;5.50;;;1.53;;
10246;SDS011;5168;47.854;7.944;2022-09-09T09:55:20;3.57;;;1.37;;
10246;SDS011;5168;47.854;7.944;2022-09-09T09:57:47;2.30;;;1.40;;
10246;SDS011;5168;47.854;7.944;2022-09-09T10:00:15;3.73;;;1.40;;
10246;SDS011;5168;47.854;7.944;2022-09-09T10:02:43;3.03;;;1.40;;
10246;SDS011;5168;47.854;7.944;2022-09-09T10:05:15;1.83;;;1.30;;
10246;SDS011;5168;47.854;7.944;2022-09-09T10:13:46;3.67;;;1.40;;
10246;SDS011;5168;47.854;7.944;2022-09-09T10:19:19;2.17;;;1.10;;
10246;SDS011;5168;47.854;7.944;2022-09-09T10:24:49;2.63;;;1.30;;
10246;SDS011;5168;47.854;7.944;2022-09-09T10:27:32;5.10;;;1.40;;
10246;SDS011;5168;47.854;7.944;2022-09-09T10:30:18;2.73;;;1.43;;
10246;SDS011;5168;47.854;7.944;2022-09-09T10:33:04;1.63;;;1.13;;
10246;SDS011;5168;47.854;7.944;2022-09-09T10:35:34;4.30;;;1.30;;
10246;SDS011;5168;47.854;7.944;2022-09-09T10:40:43;4.23;;;1.50;;
10246;SDS011;5168;47.854;7.944;2022-09-09T10:46:18;3.73;;;1.50;;
10246;SDS011;5168;47.854;7.944;2022-09-09T10:49:05;3.13;;;1.37;;
10246;SDS011;5168;47.854;7.944;2022-09-09T10:54:16;4.90;;;1.63;;
10246;SDS011;5168;47.854;7.944;2022-09-09T10:56:56;2.13;;;1.33;;
10246;SDS011;5168;47.854;7.944;2022-09-09T10:59:29;2.63;;;1.40;;
10246;SDS011;5168;47.854;7.944;2022-09-09T11:02:12;6.50;;;1.40;;
10246;SDS011;5168;47.854;7.944;2022-09-09T11:05:09;3.33;;;1.53;;
10246;SDS011;5168;47.854;7.944;2022-09-09T11:07:53;3.57;;;1.63;;
10246;SDS011;5168;47.854;7.944;2022-09-09T11:10:44;3.20;;;1.47;;
10246;SDS011;5168;47.854;7.944;2022-09-09T11:13:40;5.13;;;1.60;;
10246;SDS011;5168;47.854;7.944;2022-09-09T11:16:19;2.43;;;1.33;;
10246;SDS011;5168;47.854;7.944;2022-09-09T11:19:03;2.77;;;1.73;;
10246;SDS011;5168;47.854;7.944;2022-09-09T11:21:37;1.73;;;1.30;;
10246;SDS011;5168;47.854;7.944;2022-09-09T11:24:11;6.87;;;1.40;;
10246;SDS011;5168;47.854;7.944;2022-09-09T11:27:10;4.00;;;1.20;;
10246;SDS011;5168;47.854;7.944;2022-09-09T11:40:45;2.70;;;1.60;;
10246;SDS011;5168;47.854;7.944;2022-09-09T11:43:15;4.97;;;1.90;;
10246;SDS011;5168;47.854;7.944;2022-09-09T11:45:50;6.03;;;1.80;;
10246;SDS011;5168;47.854;7.944;2022-09-09T11:48:22;3.20;;;1.50;;
10246;SDS011;5168;47.854;7.944;2022-09-09T11:51:00;3.37;;;1.50;;
10246;SDS011;5168;47.854;7.944;2022-09-09T11:53:32;2.43;;;1.40;;
10246;SDS011;5168;47.854;7.944;2022-09-09T11:56:03;4.63;;;1.50;;
10246;SDS011;5168;47.854;7.944;2022-09-09T11:58:34;2.70;;;1.40;;
10246;SDS011;5168;47.854;7.944;2022-09-09T12:01:12;6.33;;;1.73;;
10246;SDS011;5168;47.854;7.944;2022-09-09T12:06:09;1.80;;;1.20;;
10246;SDS011;5168;47.854;7.944;2022-09-09T12:08:41;7.03;;;2.10;;
10246;SDS011;5168;47.854;7.944;2022-09-09T12:11:10;3.23;;;1.70;;
10246;SDS011;5168;47.854;7.944;2022-09-09T12:13:36;2.83;;;1.50;;
10246;SDS011;5168;47.854;7.944;2022-09-09T12:16:03;3.47;;;1.30;;
10246;SDS011;5168;47.854;7.944;2022-09-09T12:18:37;3.00;;;1.30;;
10246;SDS011;5168;47.854;7.944;2022-09-09T12:21:32;1.73;;;1.43;;
10246;SDS011;5168;47.854;7.944;2022-09-09T12:24:14;2.20;;;1.63;;
10246;SDS011;5168;47.854;7.944;2022-09-09T12:26:57;3.90;;;1.40;;
10246;SDS011;5168;47.854;7.944;2022-09-09T12:29:43;2.70;;;1.40;;
10246;SDS011;5168;47.854;7.944;2022-09-09T12:32:22;3.90;;;1.40;;
10246;SDS011;5168;47.854;7.944;2022-09-09T12:39:59;2.73;;;1.27;;
10246;SDS011;5168;47.854;7.944;2022-09-09T12:42:27;2.87;;;1.40;;
10246;SDS011;5168;47.854;7.944;2022-09-09T12:44:54;3.93;;;1.57;;
10246;SDS011;5168;47.854;7.944;2022-09-09T12:47:23;2.53;;;1.07;;
10246;SDS011;5168;47.854;7.944;2022-09-09T12:49:55;4.20;;;1.60;;
10246;SDS011;5168;47.854;7.944;2022-09-09T12:54:55;3.80;;;1.70;;
10246;SDS011;5168;47.854;7.944;2022-09-09T12:57:22;2.93;;;1.30;;
10246;SDS011;5168;47.854;7.944;2022-09-09T12:59:50;2.50;;;1.40;;
10246;SDS011;5168;47.854;7.944;2022-09-09T13:02:22;3.33;;;1.10;;
10246;SDS011;5168;47.854;7.944;2022-09-09T13:04:50;5.10;;;1.37;;
10246;SDS011;5168;47.854;7.944;2022-09-09T13:07:17;2.43;;;1.57;;
10246;SDS011;5168;47.854;7.944;2022-09-09T13:09:44;4.23;;;1.47;;
10246;SDS011;5168;47.854;7.944;2022-09-09T13:12:15;4.40;;;1.23;;
10246;SDS011;5168;47.854;7.944;2022-09-09T13:14:44;2.67;;;1.23;;
10246;SDS011;5168;47.854;7.944;2022-09-09T13:17:20;2.93;;;1.20;;
10246;SDS011;5168;47.854;7.944;2022-09-09T13:19:51;3.03;;;1.37;;
10246;SDS011;5168;47.854;7.944;2022-09-09T13:22:36;2.43;;;1.30;;
10246;SDS011;5168;47.854;7.944;2022-09-09T13:25:05;4.30;;;1.27;;
10246;SDS011;5168;47.854;7.944;2022-09-09T13:27:50;3.00;;;1.37;;
10246;SDS011;5168;47.854;7.944;2022-09-09T13:30:23;5.83;;;1.40;;
10246;SDS011;5168;47.854;7.944;2022-09-09T13:35:27;2.87;;;1.30;;
10246;SDS011;5168;47.854;7.944;2022-09-09T13:37:53;1.50;;;1.23;;
10246;SDS011;5168;47.854;7.944;2022-09-09T13:40:20;3.73;;;1.40;;
10246;SDS011;5168;47.854;7.944;2022-09-09T13:42:56;2.83;;;1.20;;
10246;SDS011;5168;47.854;7.944;2022-09-09T13:45:25;1.17;;;1.07;;
10246;SDS011;5168;47.854;7.944;2022-09-09T13:47:54;2.30;;;1.40;;
10246;SDS011;5168;47.854;7.944;2022-09-09T13:52:48;1.47;;;1.30;;
10246;SDS011;5168;47.854;7.944;2022-09-09T13:55:18;1.83;;;1.23;;
10246;SDS011;5168;47.854;7.944;2022-09-09T13:58:04;2.00;;;1.73;;
10246;SDS011;5168;47.854;7.944;2022-09-09T14:00:31;4.57;;;1.13;;
10246;SDS011;5168;47.854;7.944;2022-09-09T14:02:59;3.23;;;1.20;;
10246;SDS011;5168;47.854;7.944;2022-09-09T14:05:28;2.90;;;1.20;;
10246;SDS011;5168;47.854;7.944;2022-09-09T14:07:57;1.30;;;1.20;;
10246;SDS011;5168;47.854;7.944;2022-09-09T14:10:23;2.10;;;1.13;;
10246;SDS011;5168;47.854;7.944;2022-09-09T14:12:49;2.77;;;1.20;;
10246;SDS011;5168;47.854;7.944;2022-09-09T14:15:14;2.50;;;1.20;;
10246;SDS011;5168;47.854;7.944;2022-09-09T14:17:41;2.13;;;1.03;;
10246;SDS011;5168;47.854;7.944;2022-09-09T14:20:07;2.10;;;1.00;;
10246;SDS011;5168;47.854;7.944;2022-09-09T14:22:34;2.73;;;1.37;;
10246;SDS011;5168;47.854;7.944;2022-09-09T14:25:01;2.87;;;1.40;;
10246;SDS011;5168;47.854;7.944;2022-09-09T14:27:27;1.30;;;1.20;;
10246;SDS011;5168;47.854;7.944;2022-09-09T14:29:53;2.20;;;1.40;;
10246;SDS011;5168;47.854;7.944;2022-09-09T14:32:19;2.90;;;1.30;;
10246;SDS011;5168;47.854;7.944;2022-09-09T14:34:46;1.20;;;1.10;;
10246;SDS011;5168;47.854;7.944;2022-09-09T14:37:14;1.70;;;1.17;;
10246;SDS011;5168;47.854;7.944;2022-09-09T14:39:40;3.57;;;1.23;;
10246;SDS011;5168;47.854;7.944;2022-09-09T14:42:08;2.23;;;1.27;;
10246;SDS011;5168;47.854;7.944;2022-09-09T14:44:35;1.63;;;1.10;;
10246;SDS011;5168;47.854;7.944;2022-09-09T14:47:03;3.73;;;1.30;;
10246;SDS011;5168;47.854;7.944;2022-09-09T14:49:36;2.27;;;1.17;;
10246;SDS011;5168;47.854;7.944;2022-09-09T14:52:03;1.80;;;1.30;;
10246;SDS011;5168;47.854;7.944;2022-09-09T14:54:29;1.63;;;1.20;;
10246;SDS011;5168;47.854;7.944;2022-09-09T14:56:56;2.40;;;1.10;;
10246;SDS011;5168;47.854;7.944;2022-09-09T14:59:22;2.27;;;1.23;;
10246;SDS011;5168;47.854;7.944;2022-09-09T15:01:48;1.50;;;1.17;;
10246;SDS011;5168;47.854;7.944;2022-09-09T15:04:14;1.80;;;1.10;;
10246;SDS011;5168;47.854;7.944;2022-09-09T15:06:40;2.67;;;1.40;;
10246;SDS011;5168;47.854;7.944;2022-09-09T15:09:07;3.50;;;1.47;;
10246;SDS011;5168;47.854;7.944;2022-09-09T15:11:35;1.53;;;1.23;;
10246;SDS011;5168;47.854;7.944;2022-09-09T15:14:05;2.10;;;1.33;;
10246;SDS011;5168;47.854;7.944;2022-09-09T15:16:32;1.93;;;1.23;;
10246;SDS011;5168;47.854;7.944;2022-09-09T15:18:58;2.37;;;1.30;;
10246;SDS011;5168;47.854;7.944;2022-09-09T15:21:29;4.20;;;1.47;;
10246;SDS011;5168;47.854;7.944;2022-09-09T15:23:56;4.93;;;1.40;;
10246;SDS011;5168;47.854;7.944;2022-09-09T15:26:22;2.80;;;1.37;;
10246;SDS011;5168;47.854;7.944;2022-09-09T15:28:48;5.13;;;1.30;;
10246;SDS011;5168;47.854;7.944;2022-09-09T15:31:16;4.93;;;1.40;;
10246;SDS011;5168;47.854;7.944;2022-09-09T15:33:53;2.03;;;1.27;;
10246;SDS011;5168;47.854;7.944;2022-09-09T15:36:26;2.93;;;1.47;;
10246;SDS011;5168;47.854;7.944;2022-09-09T15:39:06;2.37;;;1.50;;
10246;SDS011;5168;47.854;7.944;2022-09-09T15:41:33;2.47;;;1.30;;
10246;SDS011;5168;47.854;7.944;2022-09-09T15:43:59;1.30;;;1.20;;
10246;SDS011;5168;47.854;7.944;2022-09-09T15:46:27;1.33;;;1.07;;
10246;SDS011;5168;47.854;7.944;2022-09-09T15:49:18;2.00;;;1.40;;
10246;SDS011;5168;47.854;7.944;2022-09-09T15:51:50;2.47;;;1.30;;
10246;SDS011;5168;47.854;7.944;2022-09-09T15:54:25;2.17;;;1.27;;
10246;SDS011;5168;47.854;7.944;2022-09-09T15:56:52;3.17;;;1.33;;
10246;SDS011;5168;47.854;7.944;2022-09-09T15:59:20;2.43;;;1.37;;
10246;SDS011;5168;47.854;7.944;2022-09-09T16:01:49;1.30;;;1.20;;
10246;SDS011;5168;47.854;7.944;2022-09-09T16:04:16;2.07;;;1.20;;
10246;SDS011;5168;47.854;7.944;2022-09-09T16:06:48;1.70;;;1.37;;
10246;SDS011;5168;47.854;7.944;2022-09-09T16:09:18;4.97;;;1.40;;
10246;SDS011;5168;47.854;7.944;2022-09-09T16:11:44;3.10;;;1.63;;
10246;SDS011;5168;47.854;7.944;2022-09-09T16:14:11;2.67;;;1.40;;
10246;SDS011;5168;47.854;7.944;2022-09-09T16:16:37;2.87;;;1.20;;
10246;SDS011;5168;47.854;7.944;2022-09-09T16:19:07;6.63;;;1.43;;
10246;SDS011;5168;47.854;7.944;2022-09-09T16:21:35;3.80;;;1.50;;
10246;SDS011;5168;47.854;7.944;2022-09-09T16:24:03;3.27;;;1.40;;
10246;SDS011;5168;47.854;7.944;2022-09-09T16:26:30;3.07;;;1.47;;
10246;SDS011;5168;47.854;7.944;2022-09-09T16:28:58;4.07;;;1.40;;
10246;SDS011;5168;47.854;7.944;2022-09-09T16:31:25;3.33;;;1.40;;
10246;SDS011;5168;47.854;7.944;2022-09-09T16:33:52;4.00;;;1.53;;
10246;SDS011;5168;47.854;7.944;2022-09-09T16:36:22;3.43;;;1.50;;
10246;SDS011;5168;47.854;7.944;2022-09-09T16:38:51;3.97;;;1.30;;
10246;SDS011;5168;47.854;7.944;2022-09-09T16:41:25;6.37;;;1.60;;
10246;SDS011;5168;47.854;7.944;2022-09-09T16:43:56;3.17;;;1.40;;
10246;SDS011;5168;47.854;7.944;2022-09-09T16:46:27;4.17;;;1.53;;
10246;SDS011;5168;47.854;7.944;2022-09-09T16:48:55;6.20;;;1.53;;
10246;SDS011;5168;47.854;7.944;2022-09-09T16:51:24;2.63;;;1.67;;
10246;SDS011;5168;47.854;7.944;2022-09-09T16:53:54;2.47;;;1.50;;
10246;SDS011;5168;47.854;7.944;2022-09-09T16:56:24;2.83;;;1.30;;
10246;SDS011;5168;47.854;7.944;2022-09-09T16:58:52;2.17;;;1.40;;
10246;SDS011;5168;47.854;7.944;2022-09-09T17:01:20;2.90;;;1.40;;
10246;SDS011;5168;47.854;7.944;2022-09-09T17:03:46;1.57;;;1.40;;
10246;SDS011;5168;47.854;7.944;2022-09-09T17:06:12;2.53;;;1.60;;
10246;SDS011;5168;47.854;7.944;2022-09-09T17:08:39;1.73;;;1.20;;
10246;SDS011;5168;47.854;7.944;2022-09-09T17:11:11;2.00;;;1.80;;